createdAt,value
2019-04-03T00:00:32.799Z,21.1
2019-04-03T00:01:32.718Z,21.299999
2019-04-03T00:02:32.702Z,21.799999
2019-04-03T00:03:32.609Z,21.799999
2019-04-03T00:04:33.948Z,22.200001
2019-04-03T00:05:33.678Z,21
2019-04-03T00:06:33.551Z,20.5
2019-04-03T00:07:33.737Z,21.9
2019-04-03T00:08:32.903Z,23.700001
2019-04-03T00:09:32.007Z,21.799999
2019-04-03T00:10:33.129Z,22.1
2019-04-03T00:11:32.235Z,20.700001
2019-04-03T00:12:32.389Z,24.799999
2019-04-03T00:13:32.545Z,21.1
2019-04-03T00:14:32.645Z,20
2019-04-03T00:15:32.749Z,20.700001
2019-04-03T00:16:32.863Z,21.4
2019-04-03T00:17:32.972Z,19.6
2019-04-03T00:18:33.101Z,20.1
2019-04-03T00:19:33.372Z,21
2019-04-03T00:20:33.398Z,20.5
2019-04-03T00:21:33.561Z,21.9
2019-04-03T00:22:33.478Z,19.9
2019-04-03T00:23:33.630Z,20.5
2019-04-03T00:24:33.759Z,21.4
2019-04-03T00:25:33.939Z,20.1
2019-04-03T00:26:33.970Z,21.799999
2019-04-03T00:27:33.888Z,20.9
2019-04-03T00:28:34.009Z,20.1
2019-04-03T00:29:34.100Z,21.700001
2019-04-03T00:30:34.204Z,20.9
2019-04-03T00:31:34.307Z,20.6
2019-04-03T00:32:34.406Z,20.200001
2019-04-03T00:33:34.535Z,19.700001
2019-04-03T00:34:35.636Z,20.4
2019-04-03T00:35:34.729Z,19.1
2019-04-03T00:36:34.821Z,20.299999
2019-04-03T00:37:35.008Z,20.1
2019-04-03T00:38:35.043Z,20.9
2019-04-03T00:39:35.175Z,21.299999
2019-04-03T00:40:35.240Z,21.299999
2019-04-03T00:41:35.337Z,19.799999
2019-04-03T00:42:35.427Z,20.700001
2019-04-03T00:43:35.538Z,21
2019-04-03T00:44:35.637Z,21
2019-04-03T00:45:35.770Z,20.5
2019-04-03T00:46:35.928Z,20.6
2019-04-03T00:47:36.009Z,20.700001
2019-04-03T00:48:36.124Z,21.700001
2019-04-03T00:49:36.238Z,22
2019-04-03T00:50:36.418Z,23
2019-04-03T00:51:36.425Z,23
2019-04-03T00:52:36.523Z,22.700001
2019-04-03T00:53:36.647Z,22.700001
2019-04-03T00:54:36.730Z,22.299999
2019-04-03T00:55:36.822Z,22.700001
2019-04-03T00:56:36.944Z,25
2019-04-03T00:57:37.030Z,25
2019-04-03T00:58:37.165Z,24.799999
2019-04-03T00:59:37.198Z,23.299999
2019-04-03T01:00:37.276Z,23.9
2019-04-03T01:01:37.312Z,22.9
2019-04-03T01:02:37.350Z,24.1
2019-04-03T01:03:37.467Z,25.5
2019-04-03T01:04:37.584Z,25.5
2019-04-03T01:05:37.598Z,25.6
2019-04-03T01:06:37.615Z,28.1
2019-04-03T01:07:37.662Z,25.700001
2019-04-03T01:08:37.769Z,26.1
2019-04-03T01:09:37.799Z,28.200001
2019-04-03T01:10:37.861Z,27.700001
2019-04-03T01:11:37.898Z,27.4
2019-04-03T01:12:37.941Z,29.9
2019-04-03T01:13:38.016Z,27.700001
2019-04-03T01:14:38.052Z,27.6
2019-04-03T01:15:38.157Z,27.799999
2019-04-03T01:16:38.285Z,27.799999
2019-04-03T01:17:38.412Z,28.700001
2019-04-03T01:18:38.428Z,28.6
2019-04-03T01:19:38.431Z,29.4
2019-04-03T01:20:38.405Z,30.299999
2019-04-03T01:21:38.551Z,29.5
2019-04-03T01:22:38.651Z,29.4
2019-04-03T01:23:38.723Z,29
2019-04-03T01:24:39.040Z,28.6
2019-04-03T01:25:39.501Z,29.200001
2019-04-03T01:26:40.605Z,30.200001
2019-04-03T01:27:41.502Z,29.299999
2019-04-03T01:28:41.812Z,27.700001
2019-04-03T01:29:42.129Z,28.5
2019-04-03T01:30:40.370Z,28.799999
2019-04-03T01:31:39.303Z,28.5
2019-04-03T01:32:39.397Z,29
2019-04-03T01:33:39.526Z,29
2019-04-03T01:34:39.639Z,28.9
2019-04-03T01:35:39.987Z,29.700001
2019-04-03T01:36:39.942Z,29.5
2019-04-03T01:37:40.062Z,29.6
2019-04-03T01:38:40.005Z,28
2019-04-03T01:39:40.119Z,27.200001
2019-04-03T01:40:40.219Z,28.5
2019-04-03T01:41:40.027Z,29.6
2019-04-03T01:42:40.169Z,30.1
2019-04-03T01:43:40.298Z,28.700001
2019-04-03T01:44:40.305Z,27.6
2019-04-03T01:45:40.461Z,25.9
2019-04-03T01:46:40.535Z,26.200001
2019-04-03T01:47:40.682Z,25.9
2019-04-03T01:48:40.822Z,24.9
2019-04-03T01:49:40.814Z,23.9
2019-04-03T01:50:40.908Z,26
2019-04-03T01:51:40.954Z,26.700001
2019-04-03T01:52:40.958Z,26.5
2019-04-03T01:53:41.109Z,25.6
2019-04-03T01:54:41.138Z,25.6
2019-04-03T01:55:41.124Z,24.6
2019-04-03T01:56:41.158Z,25.200001
2019-04-03T01:57:41.271Z,24.4
2019-04-03T01:58:41.466Z,24.299999
2019-04-03T01:59:41.512Z,26
2019-04-03T02:00:41.490Z,25.299999
2019-04-03T02:01:41.561Z,24.1
2019-04-03T02:02:41.625Z,24.799999
2019-04-03T02:03:42.208Z,25.200001
2019-04-03T02:04:42.646Z,24.4
2019-04-03T02:05:43.757Z,24.299999
2019-04-03T02:06:43.583Z,24.4
2019-04-03T02:07:44.605Z,26.200001
2019-04-03T02:08:44.800Z,25.1
2019-04-03T02:09:43.879Z,25.4
2019-04-03T02:10:43.342Z,25.4
2019-04-03T02:11:42.477Z,26
2019-04-03T02:12:42.479Z,26.5
2019-04-03T02:13:42.796Z,26.700001
2019-04-03T02:14:42.733Z,26.4
2019-04-03T02:15:42.804Z,25.9
2019-04-03T02:16:42.943Z,26.700001
2019-04-03T02:17:43.041Z,27.5
2019-04-03T02:18:43.147Z,27.700001
2019-04-03T02:19:43.232Z,26.700001
2019-04-03T02:20:43.355Z,26.9
2019-04-03T02:21:43.441Z,29.5
2019-04-03T02:22:43.494Z,28.6
2019-04-03T02:23:43.592Z,27
2019-04-03T02:24:43.637Z,26.1
2019-04-03T02:25:43.677Z,26.200001
2019-04-03T02:26:43.904Z,30.9
2019-04-03T02:27:43.811Z,28.6
2019-04-03T02:28:44.134Z,31.299999
2019-04-03T02:29:44.016Z,34.400002
2019-04-03T02:30:45.954Z,27.799999
2019-04-03T02:31:45.332Z,26.5
2019-04-03T02:32:44.261Z,27.200001
2019-04-03T02:33:44.422Z,27.4
2019-04-03T02:34:44.391Z,27.200001
2019-04-03T02:35:44.368Z,31.799999
2019-04-03T02:36:45.449Z,26.4
2019-04-03T02:37:48.200Z,25.5
2019-04-03T02:38:45.585Z,25.299999
2019-04-03T02:39:44.576Z,26.299999
2019-04-03T02:40:44.625Z,25.700001
2019-04-03T02:41:44.619Z,25.4
2019-04-03T02:42:44.759Z,24.5
2019-04-03T02:43:46.237Z,23.299999
2019-04-03T02:44:45.993Z,22.700001
2019-04-03T02:45:45.048Z,22.200001
2019-04-03T02:46:45.628Z,22.200001
2019-04-03T02:47:45.041Z,22
2019-04-03T02:48:45.214Z,22.1
2019-04-03T02:49:45.243Z,21.200001
2019-04-03T02:50:47.521Z,21.1
2019-04-03T02:51:46.326Z,21.200001
2019-04-03T02:52:45.419Z,20.4
2019-04-03T02:53:45.679Z,21.4
2019-04-03T02:54:45.569Z,20.700001
2019-04-03T02:55:45.615Z,21.1
2019-04-03T02:56:46.121Z,21
2019-04-03T02:57:48.331Z,19.700001
2019-04-03T02:58:47.090Z,19.700001
2019-04-03T02:59:45.827Z,18.299999
2019-04-03T03:00:45.924Z,19.1
2019-04-03T03:01:46.045Z,19.4
2019-04-03T03:02:46.297Z,19.4
2019-04-03T03:03:48.262Z,17.799999
2019-04-03T03:04:47.257Z,16.9
2019-04-03T03:05:46.301Z,17.200001
2019-04-03T03:06:46.375Z,17.700001
2019-04-03T03:07:46.390Z,15.2
2019-04-03T03:08:46.453Z,15.2
2019-04-03T03:09:47.474Z,14
2019-04-03T03:10:48.871Z,15.1
2019-04-03T03:11:47.644Z,12.4
2019-04-03T03:12:46.698Z,13.6
2019-04-03T03:13:46.811Z,15.1
2019-04-03T03:14:47.025Z,10.8
2019-04-03T03:15:46.948Z,11.7
2019-04-03T03:16:49.166Z,15.5
2019-04-03T03:17:48.565Z,11.6
2019-04-03T03:18:47.268Z,10.5
2019-04-03T03:19:47.271Z,8.4
2019-04-03T03:20:47.228Z,9.6
2019-04-03T03:21:47.399Z,8.5
2019-04-03T03:22:49.631Z,9.2
2019-04-03T03:23:48.453Z,8.1
2019-04-03T03:24:47.496Z,8.6
2019-04-03T03:25:47.442Z,9.2
2019-04-03T03:26:47.414Z,8.1
2019-04-03T03:27:47.552Z,8.6
2019-04-03T03:28:47.971Z,9.2
2019-04-03T03:29:47.734Z,7.3
2019-04-03T03:30:57.554Z,7.6
2019-04-03T03:32:07.702Z,7.1
2019-04-03T03:32:49.401Z,6.9
2019-04-03T03:33:48.118Z,7
2019-04-03T03:34:56.392Z,7.1
2019-04-03T03:35:50.764Z,8.4
2019-04-03T03:36:50.498Z,7.3
2019-04-03T03:37:49.476Z,7.9
2019-04-03T03:38:48.747Z,8.1
2019-04-03T03:39:48.449Z,9.3
2019-04-03T03:40:49.253Z,8.9
2019-04-03T03:41:49.590Z,8.9
2019-04-03T03:42:48.609Z,7.6
2019-04-03T03:43:48.614Z,8.8
2019-04-03T03:44:48.753Z,7.7
2019-04-03T03:45:51.346Z,8.6
2019-04-03T03:46:49.840Z,9.1
2019-04-03T03:47:48.928Z,8.9
2019-04-03T03:48:49.108Z,8.7
2019-04-03T03:49:50.340Z,8.7
2019-04-03T03:50:50.051Z,8.6
2019-04-03T03:51:49.201Z,8.7
2019-04-03T03:52:49.050Z,8.4
2019-04-03T03:53:49.191Z,8.5
2019-04-03T03:54:50.854Z,9.6
2019-04-03T03:55:50.348Z,8.2
2019-04-03T03:56:49.334Z,10.3
2019-04-03T03:57:49.653Z,8.3
2019-04-03T03:58:50.830Z,9.3
2019-04-03T03:59:51.549Z,9
2019-04-03T04:00:51.928Z,9.3
2019-04-03T04:01:50.940Z,9.9
2019-04-03T04:02:49.919Z,10.5
2019-04-03T04:03:50.056Z,11.3
2019-04-03T04:04:50.234Z,10.8
2019-04-03T04:05:53.693Z,12
2019-04-03T04:06:51.227Z,9.7
2019-04-03T04:07:50.233Z,11.9
2019-04-03T04:08:50.196Z,11.8
2019-04-03T04:09:51.645Z,13.6
2019-04-03T04:10:51.324Z,12.8
2019-04-03T04:11:50.397Z,12.3
2019-04-03T04:12:50.368Z,11.4
2019-04-03T04:13:50.543Z,11.5
2019-04-03T04:14:54.276Z,9.9
2019-04-03T04:15:51.762Z,12.1
2019-04-03T04:16:51.196Z,11.6
2019-04-03T04:17:51.512Z,12.1
2019-04-03T04:18:55.400Z,11.5
2019-04-03T04:19:51.961Z,12.4
2019-04-03T04:20:51.197Z,11
2019-04-03T04:21:50.943Z,10.9
2019-04-03T04:22:51.571Z,11.3
2019-04-03T04:23:52.862Z,13.5
2019-04-03T04:24:52.392Z,10.1
2019-04-03T04:25:51.411Z,11.1
2019-04-03T04:26:51.560Z,12.4
2019-04-03T04:27:51.559Z,14
2019-04-03T04:28:51.543Z,11.4
2019-04-03T04:29:51.714Z,11.7
2019-04-03T04:30:51.717Z,14.1
2019-04-03T04:31:51.814Z,12.2
2019-04-03T04:32:51.923Z,13.8
2019-04-03T04:33:52.036Z,12.4
2019-04-03T04:34:52.090Z,11.1
2019-04-03T04:35:52.934Z,15.5
2019-04-03T04:36:55.112Z,17.1
2019-04-03T04:37:55.216Z,13.6
2019-04-03T04:38:53.413Z,12
2019-04-03T04:39:52.452Z,11.5
2019-04-03T04:40:52.622Z,12.1
2019-04-03T04:41:52.697Z,13.5
2019-04-03T04:42:52.775Z,13.6
2019-04-03T04:43:52.954Z,12.3
2019-04-03T04:44:53.000Z,13.8
2019-04-03T04:45:53.078Z,13.9
2019-04-03T04:46:54.276Z,12.1
2019-04-03T04:47:53.345Z,11.9
2019-04-03T04:48:53.304Z,13.7
2019-04-03T04:49:54.201Z,12.6
2019-04-03T04:50:55.016Z,15.6
2019-04-03T04:51:56.483Z,12.4
2019-04-03T04:52:54.754Z,14.1
2019-04-03T04:53:53.840Z,11.8
2019-04-03T04:54:53.993Z,13.1
2019-04-03T04:55:54.364Z,13.6
2019-04-03T04:56:54.224Z,14.1
2019-04-03T04:57:54.403Z,14.9
2019-04-03T04:58:54.351Z,11.9
2019-04-03T04:59:54.515Z,13.1
2019-04-03T05:00:54.535Z,12.6
2019-04-03T05:01:54.553Z,13.2
2019-04-03T05:02:54.650Z,12.7
2019-04-03T05:03:54.916Z,13.5
2019-04-03T05:04:55.768Z,13.2
2019-04-03T05:05:58.208Z,12.7
2019-04-03T05:06:56.142Z,12.9
2019-04-03T05:07:55.232Z,14.7
2019-04-03T05:08:55.348Z,12.3
2019-04-03T05:09:55.501Z,13
2019-04-03T05:10:55.606Z,14.2
2019-04-03T05:11:55.984Z,13.7
2019-04-03T05:12:56.058Z,12.8
2019-04-03T05:13:55.945Z,13
2019-04-03T05:14:56.061Z,13.9
2019-04-03T05:15:56.195Z,13.8
2019-04-03T05:16:56.358Z,13.9
2019-04-03T05:17:57.635Z,12.7
2019-04-03T05:19:08.569Z,14.5
2019-04-03T05:19:57.653Z,13.6
2019-04-03T05:20:56.769Z,13.5
2019-04-03T05:21:56.861Z,12.7
2019-04-03T05:22:57.069Z,12.8
2019-04-03T05:24:10.088Z,13.9
2019-04-03T05:24:59.301Z,14
2019-04-03T05:26:00.720Z,16.1
2019-04-03T05:26:58.528Z,14.7
2019-04-03T05:27:57.466Z,14
2019-04-03T05:28:58.532Z,14
2019-04-03T05:29:57.660Z,14.6
2019-04-03T05:30:57.763Z,13.4
2019-04-03T05:31:57.871Z,13.6
2019-04-03T05:32:57.969Z,13.3
2019-04-03T05:33:58.114Z,15.4
2019-04-03T05:34:58.319Z,13.9
2019-04-03T05:35:58.353Z,13.6
2019-04-03T05:36:58.471Z,15.3
2019-04-03T05:37:58.528Z,15.7
2019-04-03T05:38:58.629Z,15.3
2019-04-03T05:39:58.761Z,16.6
2019-04-03T05:40:58.878Z,15.4
2019-04-03T05:41:59.760Z,13.7
2019-04-03T05:43:00.124Z,15.1
2019-04-03T05:44:02.313Z,13.9
2019-04-03T05:45:00.336Z,16.299999
2019-04-03T05:45:59.276Z,14.7
2019-04-03T05:46:59.999Z,14.5
2019-04-03T05:47:59.474Z,13.6
2019-04-03T05:48:59.611Z,16
2019-04-03T05:49:59.716Z,15.3
2019-04-03T05:50:59.841Z,15.7
2019-04-03T05:51:59.939Z,13.9
2019-04-03T05:53:00.170Z,14.1
2019-04-03T05:54:00.195Z,14.3
2019-04-03T05:55:00.509Z,17
2019-04-03T05:56:00.447Z,15
2019-04-03T05:57:00.462Z,16
2019-04-03T05:58:00.842Z,15.1
2019-04-03T05:59:02.520Z,14.7
2019-04-03T06:00:02.490Z,16.799999
2019-04-03T06:01:04.715Z,14.8
2019-04-03T06:02:13.730Z,18.5
2019-04-03T06:03:01.899Z,17.299999
2019-04-03T06:04:01.034Z,17.9
2019-04-03T06:05:01.090Z,17.200001
2019-04-03T06:06:01.117Z,17
2019-04-03T06:07:01.301Z,17.9
2019-04-03T06:08:01.212Z,17.9
2019-04-03T06:09:01.537Z,20.6
2019-04-03T06:10:01.512Z,18.700001
2019-04-03T06:11:03.367Z,18.299999
2019-04-03T06:12:02.669Z,21
2019-04-03T06:13:01.562Z,20.6
2019-04-03T06:14:01.518Z,18.200001
2019-04-03T06:15:01.543Z,18.4
2019-04-03T06:16:01.715Z,18.799999
2019-04-03T06:17:01.620Z,18.9
2019-04-03T06:18:01.749Z,18.799999
2019-04-03T06:19:01.913Z,21.700001
2019-04-03T06:20:02.223Z,17.5
2019-04-03T06:21:02.133Z,20
2019-04-03T06:22:02.346Z,19.799999
2019-04-03T06:23:02.212Z,18.200001
2019-04-03T06:24:02.239Z,21.1
2019-04-03T06:25:02.387Z,21.200001
2019-04-03T06:26:03.022Z,20.700001
2019-04-03T06:27:02.734Z,19.700001
2019-04-03T06:28:02.675Z,18.4
2019-04-03T06:29:02.950Z,19.799999
2019-04-03T06:30:02.942Z,20.799999
2019-04-03T06:31:02.993Z,23
2019-04-03T06:32:05.357Z,18.9
2019-04-03T06:33:04.854Z,18.5
2019-04-03T06:34:03.400Z,20.700001
2019-04-03T06:35:03.347Z,20.700001
2019-04-03T06:36:03.364Z,20.700001
2019-04-03T06:37:03.659Z,21.6
2019-04-03T06:38:03.624Z,20.6
2019-04-03T06:39:03.721Z,19.4
2019-04-03T06:40:04.037Z,20.799999
2019-04-03T06:41:04.012Z,19.4
2019-04-03T06:42:03.997Z,20.1
2019-04-03T06:43:04.144Z,22.5
2019-04-03T06:44:04.082Z,21.299999
2019-04-03T06:45:04.140Z,21.700001
2019-04-03T06:46:04.764Z,20.200001
2019-04-03T06:47:04.230Z,20.6
2019-04-03T06:48:05.182Z,22.9
2019-04-03T06:49:07.805Z,21
2019-04-03T06:50:05.480Z,20.5
2019-04-03T06:51:04.616Z,20.4
2019-04-03T06:52:04.493Z,21.4
2019-04-03T06:53:04.520Z,20.299999
2019-04-03T06:54:07.094Z,22.9
2019-04-03T06:55:05.922Z,21.200001
2019-04-03T06:56:07.607Z,23.700001
2019-04-03T06:57:05.710Z,20.9
2019-04-03T06:58:04.742Z,21.299999
2019-04-03T06:59:04.986Z,22.299999
2019-04-03T07:00:04.860Z,21.6
2019-04-03T07:01:04.910Z,22.200001
2019-04-03T07:02:04.965Z,21.9
2019-04-03T07:03:05.356Z,22.700001
2019-04-03T07:04:06.376Z,22.4
2019-04-03T07:05:06.120Z,22.799999
2019-04-03T07:06:05.161Z,24.700001
2019-04-03T07:07:05.201Z,22.1
2019-04-03T07:08:06.068Z,24.299999
2019-04-03T07:09:06.472Z,24.299999
2019-04-03T07:10:08.413Z,21.200001
2019-04-03T07:11:06.622Z,22.5
2019-04-03T07:12:05.745Z,20.799999
2019-04-03T07:13:05.873Z,21.200001
2019-04-03T07:14:06.029Z,21
2019-04-03T07:15:06.116Z,21.799999
2019-04-03T07:16:06.141Z,24.700001
2019-04-03T07:17:06.452Z,23.4
2019-04-03T07:18:06.682Z,23.4
2019-04-03T07:19:08.125Z,24.1
2019-04-03T07:20:14.092Z,20.799999
2019-04-03T07:21:07.531Z,22.299999
2019-04-03T07:22:06.558Z,21.5
2019-04-03T07:23:06.589Z,23.700001
2019-04-03T07:24:06.623Z,23.6
2019-04-03T07:25:06.692Z,20.6
2019-04-03T07:26:06.763Z,21.200001
2019-04-03T07:27:07.027Z,22.700001
2019-04-03T07:28:08.851Z,22.799999
2019-04-03T07:29:07.939Z,20.5
2019-04-03T07:30:07.196Z,21
2019-04-03T07:31:07.065Z,23.200001
2019-04-03T07:32:07.094Z,22.1
2019-04-03T07:33:07.397Z,24
2019-04-03T07:34:07.140Z,23.4
2019-04-03T07:35:09.698Z,22.6
2019-04-03T07:36:08.720Z,22.200001
2019-04-03T07:37:08.259Z,24.6
2019-04-03T07:38:07.298Z,21.9
2019-04-03T07:39:10.038Z,21.799999
2019-04-03T07:40:08.406Z,24.9
2019-04-03T07:41:07.461Z,25
2019-04-03T07:42:07.531Z,26.1
2019-04-03T07:43:07.563Z,24.6
2019-04-03T07:44:07.588Z,25.5
2019-04-03T07:45:07.821Z,24
2019-04-03T07:46:07.716Z,24.799999
2019-04-03T07:47:07.753Z,25.9
2019-04-03T07:48:07.827Z,25.5
2019-04-03T07:49:08.931Z,25.4
2019-04-03T07:50:10.901Z,25.799999
2019-04-03T07:51:08.938Z,25.799999
2019-04-03T07:52:07.981Z,28.4
2019-04-03T07:53:08.047Z,28.4
2019-04-03T07:54:08.093Z,28.299999
2019-04-03T07:55:08.154Z,26.5
2019-04-03T07:56:08.233Z,24.6
2019-04-03T07:57:09.996Z,23.200001
2019-04-03T07:58:09.336Z,25.9
2019-04-03T07:59:08.372Z,28.200001
2019-04-03T08:00:08.464Z,30.4
2019-04-03T08:01:10.490Z,25.6
2019-04-03T08:02:11.842Z,25.700001
2019-04-03T08:03:09.576Z,25.9
2019-04-03T08:04:08.766Z,27.9
2019-04-03T08:05:08.690Z,25.700001
2019-04-03T08:06:08.749Z,27.299999
2019-04-03T08:07:09.000Z,27.799999
2019-04-03T08:08:08.853Z,24.6
2019-04-03T08:09:09.857Z,23.1
2019-04-03T08:10:09.919Z,25.5
2019-04-03T08:11:08.937Z,25.299999
2019-04-03T08:12:08.964Z,28.9
2019-04-03T08:13:08.981Z,30.4
2019-04-03T08:14:09.938Z,27.5
2019-04-03T08:15:12.456Z,28.1
2019-04-03T08:16:10.164Z,28.5
2019-04-03T08:17:09.211Z,26
2019-04-03T08:18:09.546Z,25.5
2019-04-03T08:19:09.396Z,26.700001
2019-04-03T08:20:09.400Z,26
2019-04-03T08:21:09.499Z,25.700001
2019-04-03T08:22:09.457Z,25.700001
2019-04-03T08:23:09.547Z,27.1
2019-04-03T08:24:09.612Z,25.1
2019-04-03T08:25:11.710Z,21.799999
2019-04-03T08:26:11.626Z,24.4
2019-04-03T08:27:10.681Z,24
2019-04-03T08:28:09.724Z,24.299999
2019-04-03T08:29:09.760Z,25.9
2019-04-03T08:30:09.826Z,30.799999
2019-04-03T08:31:11.441Z,30.799999
2019-04-03T08:32:10.966Z,30.1
2019-04-03T08:33:15.646Z,29.799999
2019-04-03T08:34:16.455Z,28.6
2019-04-03T08:35:20.240Z,29.799999
2019-04-03T08:36:23.016Z,27.799999
2019-04-03T08:37:11.091Z,26.4
2019-04-03T08:38:13.083Z,31.5
2019-04-03T08:39:11.160Z,32.200001
2019-04-03T08:40:10.215Z,28.1
2019-04-03T08:41:10.245Z,26.299999
2019-04-03T08:42:10.374Z,27
2019-04-03T08:43:10.323Z,26.9
2019-04-03T08:44:10.369Z,27.6
2019-04-03T08:45:10.411Z,28.1
2019-04-03T08:46:10.951Z,28.200001
2019-04-03T08:47:13.593Z,30.4
2019-04-03T08:48:11.494Z,25.1
2019-04-03T08:49:10.538Z,25.700001
2019-04-03T08:50:10.619Z,29.4
2019-04-03T08:51:10.642Z,31.4
2019-04-03T08:52:13.526Z,31.799999
2019-04-03T08:53:11.965Z,26.1
2019-04-03T08:54:11.343Z,27
2019-04-03T08:55:12.626Z,27.799999
2019-04-03T08:56:11.851Z,31.5
2019-04-03T08:57:10.894Z,34.200001
2019-04-03T08:58:11.133Z,34.400002
2019-04-03T08:59:12.777Z,36.5
2019-04-03T09:00:12.075Z,35.799999
2019-04-03T09:01:11.311Z,31.700001
2019-04-03T09:02:12.857Z,32.200001
2019-04-03T09:03:14.395Z,28.299999
2019-04-03T09:04:12.176Z,29.200001
2019-04-03T09:05:13.639Z,29.5
2019-04-03T09:06:12.396Z,31.1
2019-04-03T09:07:11.379Z,28.200001
2019-04-03T09:08:11.423Z,28.799999
2019-04-03T09:09:11.520Z,30.5
2019-04-03T09:10:11.535Z,27
2019-04-03T09:11:11.572Z,25.700001
2019-04-03T09:12:11.614Z,25.200001
2019-04-03T09:13:17.269Z,26.6
2019-04-03T09:14:12.744Z,26.9
2019-04-03T09:15:11.811Z,26.9
2019-04-03T09:16:12.043Z,28.5
2019-04-03T09:17:11.863Z,29
2019-04-03T09:18:11.891Z,28.1
2019-04-03T09:19:11.923Z,29.4
2019-04-03T09:20:13.416Z,26.700001
2019-04-03T09:21:15.011Z,28
2019-04-03T09:22:13.051Z,27.6
2019-04-03T09:23:12.105Z,28.700001
2019-04-03T09:24:12.164Z,28.799999
2019-04-03T09:25:13.703Z,31.4
2019-04-03T09:26:13.256Z,30.799999
2019-04-03T09:27:12.277Z,28.799999
2019-04-03T09:28:12.637Z,26.6
2019-04-03T09:29:13.331Z,26.299999
2019-04-03T09:30:15.372Z,31.200001
2019-04-03T09:31:13.444Z,27.4
2019-04-03T09:32:12.576Z,25.1
2019-04-03T09:33:12.517Z,25.1
2019-04-03T09:34:12.576Z,25
2019-04-03T09:35:12.638Z,29.299999
2019-04-03T09:36:12.696Z,29.799999
2019-04-03T09:37:12.760Z,28.4
2019-04-03T09:38:13.030Z,27.4
2019-04-03T09:39:13.859Z,24.799999
2019-04-03T09:40:16.336Z,25.4
2019-04-03T09:41:14.028Z,27.299999
2019-04-03T09:42:13.064Z,29.700001
2019-04-03T09:43:13.168Z,26.6
2019-04-03T09:44:13.320Z,26
2019-04-03T09:45:13.444Z,25.1
2019-04-03T09:46:13.444Z,27.9
2019-04-03T09:47:13.427Z,26.4
2019-04-03T09:48:13.448Z,27.6
2019-04-03T09:49:13.484Z,27.1
2019-04-03T09:50:14.433Z,26.9
2019-04-03T09:51:16.003Z,28.299999
2019-04-03T09:52:14.631Z,25.9
2019-04-03T09:53:13.716Z,25.5
2019-04-03T09:54:14.038Z,29
2019-04-03T09:55:13.781Z,29
2019-04-03T09:56:13.808Z,29.799999
2019-04-03T09:57:13.830Z,29.1
2019-04-03T09:58:13.888Z,29.9
2019-04-03T09:59:15.829Z,31.4
2019-04-03T10:00:14.980Z,30.299999
2019-04-03T10:01:17.688Z,31.6
2019-04-03T10:02:15.082Z,31.5
2019-04-03T10:03:14.115Z,29.799999
2019-04-03T10:04:14.368Z,29.1
2019-04-03T10:05:14.344Z,30.1
2019-04-03T10:06:14.553Z,33.5
2019-04-03T10:07:14.447Z,30.9
2019-04-03T10:08:14.698Z,30.9
2019-04-03T10:09:14.595Z,29.6
2019-04-03T10:10:16.503Z,31.5
2019-04-03T10:11:16.144Z,32.5
2019-04-03T10:12:15.818Z,31.700001
2019-04-03T10:13:14.913Z,33.099998
2019-04-03T10:14:14.956Z,31.700001
2019-04-03T10:15:17.641Z,32
2019-04-03T10:16:16.838Z,32.599998
2019-04-03T10:17:15.411Z,32.799999
2019-04-03T10:18:15.194Z,31
2019-04-03T10:19:15.269Z,31.700001
2019-04-03T10:20:17.180Z,33.599998
2019-04-03T10:21:17.747Z,33.700001
2019-04-03T10:22:16.426Z,33.799999
2019-04-03T10:23:15.557Z,33.299999
2019-04-03T10:24:15.515Z,33.299999
2019-04-03T10:25:15.593Z,33.200001
2019-04-03T10:26:15.648Z,32.099998
2019-04-03T10:27:15.850Z,33.200001
2019-04-03T10:28:15.780Z,32.400002
2019-04-03T10:29:17.053Z,35.200001
2019-04-03T10:30:16.960Z,33.799999
2019-04-03T10:31:16.086Z,33
2019-04-03T10:32:16.067Z,32.900002
2019-04-03T10:33:16.395Z,36.700001
2019-04-03T10:34:16.149Z,31.700001
2019-04-03T10:35:16.319Z,32.900002
2019-04-03T10:36:18.057Z,32.099998
2019-04-03T10:37:17.289Z,32.099998
2019-04-03T10:38:18.186Z,31.4
2019-04-03T10:39:18.037Z,32.400002
2019-04-03T10:40:17.757Z,33.299999
2019-04-03T10:41:16.513Z,33.799999
2019-04-03T10:42:16.558Z,33
2019-04-03T10:43:16.608Z,33
2019-04-03T10:44:16.680Z,33.299999
2019-04-03T10:45:16.780Z,33.400002
2019-04-03T10:46:18.554Z,33.299999
2019-04-03T10:47:20.480Z,33.700001
2019-04-03T10:48:17.914Z,35.299999
2019-04-03T10:49:17.247Z,34.400002
2019-04-03T10:50:17.275Z,33.299999
2019-04-03T10:51:17.288Z,32.799999
2019-04-03T10:52:17.185Z,34.799999
2019-04-03T10:53:17.805Z,34.5
2019-04-03T10:54:18.185Z,34.400002
2019-04-03T10:55:17.276Z,33.400002
2019-04-03T10:56:17.640Z,33.400002
2019-04-03T10:57:17.460Z,33.5
2019-04-03T10:58:17.389Z,32.5
2019-04-03T10:59:18.397Z,32.700001
2019-04-03T11:00:18.802Z,32
2019-04-03T11:01:17.652Z,31.1
2019-04-03T11:02:17.642Z,29.9
2019-04-03T11:03:17.691Z,32.400002
2019-04-03T11:04:17.744Z,31.9
2019-04-03T11:05:17.832Z,31.6
2019-04-03T11:06:17.955Z,32.900002
2019-04-03T11:07:17.948Z,30.700001
2019-04-03T11:08:18.079Z,32.400002
2019-04-03T11:09:18.067Z,31.5
2019-04-03T11:10:19.258Z,32
2019-04-03T11:11:18.152Z,30.1
2019-04-03T11:12:18.204Z,31
2019-04-03T11:13:18.248Z,34.200001
2019-04-03T11:14:18.661Z,31.299999
2019-04-03T11:15:18.338Z,32.299999
2019-04-03T11:16:18.411Z,30
2019-04-03T11:17:18.864Z,30
2019-04-03T11:18:18.822Z,30.6
2019-04-03T11:19:20.255Z,30.5
2019-04-03T11:20:18.551Z,29.6
2019-04-03T11:21:18.610Z,27.9
2019-04-03T11:22:19.005Z,27.4
2019-04-03T11:23:20.243Z,26.299999
2019-04-03T11:24:20.184Z,24.9
2019-04-03T11:25:18.833Z,23.5
2019-04-03T11:26:20.455Z,24.4
2019-04-03T11:27:22.777Z,24.9
2019-04-03T11:28:20.026Z,24.4
2019-04-03T11:29:19.313Z,22.200001
2019-04-03T11:30:23.424Z,24.5
2019-04-03T11:31:26.418Z,25.200001
2019-04-03T11:32:22.705Z,22.9
2019-04-03T11:33:20.316Z,22.299999
2019-04-03T11:34:19.374Z,21.799999
2019-04-03T11:35:21.689Z,20.9
2019-04-03T11:36:20.383Z,21.9
2019-04-03T11:37:19.427Z,20.9
2019-04-03T11:38:26.840Z,21.5
2019-04-03T11:39:20.856Z,20.6
2019-04-03T11:40:19.620Z,20.200001
2019-04-03T11:41:21.467Z,19.200001
2019-04-03T11:42:24.463Z,17.799999
2019-04-03T11:43:20.898Z,17.799999
2019-04-03T11:44:19.909Z,17.1
2019-04-03T11:45:19.867Z,16.5
2019-04-03T11:46:19.955Z,15.8
2019-04-03T11:47:20.317Z,15.2
2019-04-03T11:48:20.244Z,15.3
2019-04-03T11:49:20.840Z,14.5
2019-04-03T11:50:20.230Z,14.3
2019-04-03T11:51:20.167Z,15.2
2019-04-03T11:52:20.198Z,15.4
2019-04-03T11:53:20.472Z,14.9
2019-04-03T11:54:20.563Z,14.5
2019-04-03T11:55:20.367Z,14.1
2019-04-03T11:56:20.670Z,13.6
2019-04-03T11:57:20.807Z,11.9
2019-04-03T11:58:21.462Z,12.6
2019-04-03T11:59:23.631Z,12.7
2019-04-03T12:00:21.893Z,11.6
2019-04-03T12:01:20.801Z,11.8
2019-04-03T12:02:20.803Z,12.1
2019-04-03T12:03:20.905Z,11.2
2019-04-03T12:04:21.269Z,11.3
2019-04-03T12:05:21.576Z,12
2019-04-03T12:06:21.223Z,11
2019-04-03T12:07:22.826Z,11.1
2019-04-03T12:08:22.211Z,10.9
2019-04-03T12:09:21.256Z,10.8
2019-04-03T12:10:21.377Z,10.7
2019-04-03T12:11:21.631Z,10.3
2019-04-03T12:12:21.570Z,10.3
2019-04-03T12:13:21.954Z,9.6
2019-04-03T12:14:21.549Z,10.2
2019-04-03T12:15:22.275Z,9.9
2019-04-03T12:16:23.843Z,9.9
2019-04-03T12:17:22.652Z,8.1
2019-04-03T12:18:21.957Z,8.4
2019-04-03T12:19:21.772Z,8.4
2019-04-03T12:20:21.838Z,7.3
2019-04-03T12:21:21.898Z,6.4
2019-04-03T12:22:23.006Z,6.7
2019-04-03T12:23:24.372Z,7.1
2019-04-03T12:24:23.115Z,7.9
2019-04-03T12:25:22.138Z,8.3
2019-04-03T12:26:22.206Z,7.9
2019-04-03T12:27:22.244Z,7.1
2019-04-03T12:28:22.331Z,6.7
2019-04-03T12:29:23.027Z,7
2019-04-03T12:30:22.655Z,8
2019-04-03T12:31:22.550Z,7
2019-04-03T12:32:22.645Z,7
2019-04-03T12:33:22.605Z,6.9
2019-04-03T12:34:23.770Z,7.1
2019-04-03T12:35:24.039Z,7.1
2019-04-03T12:36:22.816Z,7.3
2019-04-03T12:37:24.869Z,7.1
2019-04-03T12:38:23.985Z,6.8
2019-04-03T12:39:23.021Z,7.5
2019-04-03T12:40:23.071Z,7.7
2019-04-03T12:41:23.181Z,8
2019-04-03T12:42:23.383Z,8.1
2019-04-03T12:43:23.263Z,8.3
2019-04-03T12:44:23.411Z,8
2019-04-03T12:45:25.625Z,7.6
2019-04-03T12:46:24.425Z,8.1
2019-04-03T12:47:23.507Z,8.6